Time;durP1;ratioP1;P1;durP2;ratioP2;P2;SDS_P1;SDS_P2;PMS_P1;PMS_P2;Temp;Humidity;BMP_temperature;BMP_pressure;BME280_temperature;BME280_humidity;BME280_pressure;Samples;Min_cycle;Max_cycle;Signal;HPM_P1;HPM_P2
2021/03/08 00:00:38;;;;;;;9.98;6.83;;;;;;;1.76;53.59;99708.14;1765798;81;21509;-66
2021/03/08 00:03:08;;;;;;;11.35;7.65;;;;;;;1.74;53.69;99703.48;1764994;81;21122;-66
2021/03/08 00:05:35;;;;;;;11.95;7.33;;;;;;;1.70;53.92;99701.48;1767456;80;21058;-66
2021/03/08 00:08:05;;;;;;;13.03;7.45;;;;;;;1.69;54.09;99692.46;1765088;80;21113;-66
2021/03/08 00:10:35;;;;;;;12.25;7.60;;;;;;;1.66;54.29;99689.57;1755908;81;21557;-66
2021/03/08 00:13:03;;;;;;;12.80;7.87;;;;;;;1.61;54.46;99682.45;1726597;82;21195;-66
2021/03/08 00:15:31;;;;;;;12.23;7.53;;;;;;;1.57;54.66;99678.81;1746828;81;21076;-67
2021/03/08 00:17:59;;;;;;;12.03;7.35;;;;;;;1.53;54.74;99679.41;1726048;83;21184;-66
2021/03/08 00:20:28;;;;;;;11.33;7.45;;;;;;;1.51;54.93;99677.36;1742733;80;21064;-66
2021/03/08 00:22:57;;;;;;;10.88;7.30;;;;;;;1.48;54.96;99675.39;1750012;81;21889;-66
2021/03/08 00:25:32;;;;;;;12.70;7.60;;;;;;;1.44;55.21;99684.64;1753257;81;21128;-66
2021/03/08 00:28:00;;;;;;;9.33;6.40;;;;;;;1.41;55.08;99669.20;1718367;83;21092;-66
2021/03/08 00:30:28;;;;;;;11.85;7.72;;;;;;;1.42;54.94;99676.08;1729696;81;21171;-66
2021/03/08 00:32:57;;;;;;;11.00;7.40;;;;;;;1.41;55.12;99665.77;1754737;81;21076;-66
2021/03/08 00:35:27;;;;;;;12.00;7.20;;;;;;;1.41;55.06;99667.91;1756129;81;22168;-66
2021/03/08 00:37:55;;;;;;;10.30;6.90;;;;;;;1.41;54.91;99656.66;1755989;80;21164;-66
2021/03/08 00:40:25;;;;;;;14.25;7.47;;;;;;;1.41;55.00;99664.00;1756102;81;21116;-66
2021/03/08 00:42:53;;;;;;;11.18;6.92;;;;;;;1.43;55.02;99656.11;1755088;80;21175;-66
2021/03/08 00:45:22;;;;;;;11.20;6.90;;;;;;;1.45;55.04;99652.98;1752728;81;21454;-66
2021/03/08 00:47:55;;;;;;;8.60;6.05;;;;;;;1.45;54.92;99647.78;1729299;81;22066;-66
2021/03/08 00:50:28;;;;;;;10.23;7.35;;;;;;;1.44;55.02;99639.11;1727897;81;21144;-66
2021/03/08 00:52:56;;;;;;;11.57;7.83;;;;;;;1.44;55.09;99643.47;1755759;80;21119;-67
2021/03/08 00:55:26;;;;;;;11.57;7.60;;;;;;;1.44;55.08;99637.80;1756065;81;21151;-66
2021/03/08 00:57:54;;;;;;;12.70;7.03;;;;;;;1.46;55.06;99635.15;1756129;81;21111;-66
2021/03/08 01:00:25;;;;;;;12.33;8.08;;;;;;;1.45;55.02;99632.17;1728560;81;21743;-66
2021/03/08 01:02:56;;;;;;;12.63;8.13;;;;;;;1.47;55.02;99626.87;1754577;81;21132;-66
2021/03/08 01:05:25;;;;;;;10.50;7.33;;;;;;;1.47;55.05;99633.38;1755359;81;21108;-67
2021/03/08 01:07:53;;;;;;;9.73;6.22;;;;;;;1.46;55.09;99627.34;1750103;81;21158;-66
2021/03/08 01:10:27;;;;;;;12.53;7.70;;;;;;;1.46;55.12;99623.44;1726047;83;21449;-66
2021/03/08 01:12:54;;;;;;;13.95;9.05;;;;;;;1.46;55.19;99624.73;1726208;82;22079;-67
2021/03/08 01:15:23;;;;;;;11.20;6.95;;;;;;;1.45;55.23;99612.66;1750388;81;21132;-66
2021/03/08 01:17:52;;;;;;;10.18;7.45;;;;;;;1.44;55.37;99614.38;1721698;82;21935;-66
2021/03/08 01:20:20;;;;;;;11.90;8.33;;;;;;;1.45;55.32;99612.66;1722299;82;21224;-66
2021/03/08 01:22:49;;;;;;;10.43;7.55;;;;;;;1.44;55.27;99606.58;1743351;82;21080;-66
2021/03/08 01:25:21;;;;;;;11.60;7.40;;;;;;;1.46;55.35;99609.59;1749843;80;22037;-66
2021/03/08 01:27:50;;;;;;;11.45;8.05;;;;;;;1.45;55.43;99606.15;1750456;81;21084;-66
2021/03/08 01:30:22;;;;;;;10.68;7.28;;;;;;;1.44;55.57;99608.34;1746875;81;21581;-67
2021/03/08 01:32:50;;;;;;;10.28;7.10;;;;;;;1.43;55.62;99602.77;1746244;82;21061;-66
2021/03/08 01:35:22;;;;;;;10.08;6.97;;;;;;;1.42;55.67;99608.43;1747669;82;21155;-66
2021/03/08 01:37:50;;;;;;;12.15;7.55;;;;;;;1.41;55.67;99607.22;1738634;80;22070;-66
2021/03/08 01:40:19;;;;;;;10.68;7.80;;;;;;;1.39;55.77;99611.20;1750372;82;21089;-66
2021/03/08 01:42:47;;;;;;;11.28;7.20;;;;;;;1.38;55.83;99603.49;1750322;80;21100;-66
2021/03/08 01:45:17;;;;;;;10.82;7.30;;;;;;;1.36;55.96;99600.14;1749689;80;21168;-66
2021/03/08 01:47:45;;;;;;;10.75;7.80;;;;;;;1.36;55.95;99607.94;1750444;82;21136;-66
2021/03/08 01:50:25;;;;;;;12.30;7.05;;;;;;;1.34;56.08;99608.46;1750467;81;22071;-66
2021/03/08 01:52:53;;;;;;;13.15;7.83;;;;;;;1.33;56.07;99598.98;1740630;82;21610;-66
2021/03/08 01:55:21;;;;;;;11.97;7.65;;;;;;;1.31;56.17;99602.97;1735662;82;21484;-66
2021/03/08 01:57:49;;;;;;;13.28;8.90;;;;;;;1.28;56.21;99600.55;1698148;82;21085;-66
2021/03/08 02:00:21;;;;;;;10.98;8.50;;;;;;;1.28;56.28;99595.34;1750242;80;21069;-66
2021/03/08 02:03:07;;;;;;;10.93;8.33;;;;;;;1.29;56.34;99599.62;1750471;82;22054;-66
2021/03/08 02:05:42;;;;;;;12.47;8.10;;;;;;;1.29;56.28;99597.02;1750301;81;21155;-66
2021/03/08 02:08:14;;;;;;;11.20;7.35;;;;;;;1.29;56.40;99600.08;1737562;82;21081;-66
2021/03/08 02:10:43;;;;;;;12.00;7.53;;;;;;;1.29;56.35;99595.72;1734709;81;21172;-66
2021/03/08 02:13:16;;;;;;;10.30;7.30;;;;;;;1.28;56.45;99595.34;1750418;81;20902;-66
2021/03/08 02:16:17;;;;;;;13.35;8.60;;;;;;;1.27;56.54;99598.87;1749908;81;22097;-66
2021/03/08 02:19:13;;;;;;;12.18;7.60;;;;;;;1.25;56.51;99595.95;1742123;81;21181;-66
2021/03/08 02:22:10;;;;;;;10.95;7.67;;;;;;;1.24;56.67;99592.50;1741670;82;21148;-65
2021/03/08 02:25:08;;;;;;;11.10;7.40;;;;;;;1.24;56.64;99595.11;1720623;82;21386;-65
2021/03/08 02:28:07;;;;;;;14.50;9.05;;;;;;;1.23;56.85;99579.59;1682484;83;21011;-66
2021/03/08 02:30:46;;;;;;;12.25;9.18;;;;;;;1.20;56.95;99586.27;1717107;82;22076;-66
2021/03/08 02:33:19;;;;;;;13.22;8.23;;;;;;;1.16;57.08;99588.20;1688878;83;21144;-67
2021/03/08 02:35:51;;;;;;;11.88;8.08;;;;;;;1.14;57.21;99589.56;1744488;82;21076;-66
2021/03/08 02:38:21;;;;;;;10.88;8.15;;;;;;;1.14;57.22;99593.92;1750113;80;21441;-67
2021/03/08 02:41:08;;;;;;;12.00;8.43;;;;;;;1.12;57.28;99592.70;1750130;82;21052;-65
2021/03/08 02:43:42;;;;;;;13.05;8.93;;;;;;;1.12;57.34;99595.31;1715015;82;21583;-66
2021/03/08 02:46:24;;;;;;;13.05;7.87;;;;;;;1.13;57.41;99595.69;1689430;83;21501;-66
2021/03/08 02:48:52;;;;;;;13.30;8.38;;;;;;;1.13;57.50;99589.18;1738207;80;21168;-67
2021/03/08 02:51:22;;;;;;;11.05;7.78;;;;;;;1.12;57.63;99594.00;1692397;83;21745;-67
2021/03/08 02:53:50;;;;;;;10.45;7.70;;;;;;;1.10;57.74;99597.16;1720519;83;21061;-67
2021/03/08 02:56:19;;;;;;;12.40;7.95;;;;;;;1.10;57.77;99585.91;1745308;80;22080;-67
2021/03/08 02:58:49;;;;;;;10.63;7.78;;;;;;;1.09;57.85;99584.24;1745420;81;21151;-67
2021/03/08 03:01:19;;;;;;;12.13;8.43;;;;;;;1.09;57.81;99576.44;1744584;81;21148;-67
2021/03/08 03:03:56;;;;;;;13.43;8.63;;;;;;;1.08;57.85;99571.70;1750603;82;21044;-67
2021/03/08 03:06:31;;;;;;;10.70;6.92;;;;;;;1.07;57.80;99573.92;1750538;81;21123;-67
2021/03/08 03:09:01;;;;;;;10.65;6.83;;;;;;;1.05;57.88;99569.23;1734718;82;22122;-67
2021/03/08 03:11:29;;;;;;;13.88;8.58;;;;;;;1.03;58.01;99568.48;1749176;81;21466;-67
2021/03/08 03:13:57;;;;;;;12.10;8.35;;;;;;;1.01;58.10;99565.59;1729519;82;21081;-67
2021/03/08 03:16:25;;;;;;;13.18;8.03;;;;;;;0.98;58.04;99574.41;1745670;81;21125;-67
2021/03/08 03:18:55;;;;;;;12.10;8.28;;;;;;;0.97;58.15;99565.39;1765931;80;21189;-69
2021/03/08 03:21:27;;;;;;;10.30;7.47;;;;;;;0.96;58.23;99566.29;1737111;82;21812;-67
2021/03/08 03:23:54;;;;;;;12.25;8.35;;;;;;;0.91;58.34;99560.05;1737011;82;21109;-67
2021/03/08 03:26:22;;;;;;;12.23;8.83;;;;;;;0.89;58.40;99551.95;1724942;81;21065;-67
2021/03/08 03:28:50;;;;;;;13.15;8.43;;;;;;;0.86;58.53;99556.83;1767550;81;21509;-67
2021/03/08 03:31:34;;;;;;;13.78;8.50;;;;;;;0.83;58.64;99555.70;1702605;84;21051;-67
2021/03/08 03:34:02;;;;;;;12.05;8.53;;;;;;;0.80;58.80;99562.38;1703566;84;22230;-66
2021/03/08 03:36:33;;;;;;;10.63;7.37;;;;;;;0.75;58.94;99557.40;1703042;83;21096;-67
2021/03/08 03:39:01;;;;;;;13.05;8.48;;;;;;;0.74;59.04;99563.98;1671577;85;21106;-67
2021/03/08 03:41:29;;;;;;;12.68;9.23;;;;;;;0.73;59.22;99571.40;1672015;85;21492;-67
2021/03/08 03:43:57;;;;;;;14.90;10.00;;;;;;;0.71;59.22;99570.64;1673289;85;21136;-68
2021/03/08 03:46:24;;;;;;;11.48;7.85;;;;;;;0.70;59.32;99562.47;1673167;85;23048;-67
2021/03/08 03:48:52;;;;;;;15.25;9.45;;;;;;;0.68;59.37;99565.16;1673104;84;21123;-67
2021/03/08 03:51:22;;;;;;;12.53;9.15;;;;;;;0.67;59.48;99569.11;1672239;85;21116;-67
2021/03/08 03:53:50;;;;;;;12.47;8.75;;;;;;;0.64;59.57;99566.22;1669570;86;22683;-67
2021/03/08 03:56:18;;;;;;;13.60;9.58;;;;;;;0.63;59.66;99562.41;1670338;86;21165;-68
2021/03/08 03:58:50;;;;;;;13.75;9.25;;;;;;;0.61;59.73;99559.05;1645515;86;21894;-67
2021/03/08 04:01:34;;;;;;;12.90;8.90;;;;;;;0.57;60.16;99555.75;1667848;86;21145;-67
2021/03/08 04:04:16;;;;;;;15.48;9.45;;;;;;;0.46;60.53;99561.50;1671473;85;21361;-67
2021/03/08 04:06:49;;;;;;;11.45;8.28;;;;;;;0.37;60.86;99562.42;1670719;85;21216;-67
2021/03/08 04:09:18;;;;;;;14.03;9.70;;;;;;;0.29;61.03;99566.73;1672637;85;21175;-67
2021/03/08 04:11:46;;;;;;;12.55;8.65;;;;;;;0.22;61.11;99562.75;1673297;85;21904;-67
2021/03/08 04:14:18;;;;;;;15.35;11.20;;;;;;;0.18;61.11;99568.99;1656322;84;21610;-67
2021/03/08 04:16:49;;;;;;;11.77;7.77;;;;;;;0.19;61.14;99565.48;1654591;85;21593;-67
2021/03/08 04:19:21;;;;;;;9.70;7.10;;;;;;;0.15;61.61;99562.20;1645827;85;21149;-67
2021/03/08 04:21:49;;;;;;;13.35;8.85;;;;;;;0.05;61.90;99566.17;1619347;87;21124;-67
2021/03/08 04:24:17;;;;;;;12.53;7.58;;;;;;;-0.07;62.18;99559.00;1661732;85;22875;-67
2021/03/08 04:26:45;;;;;;;13.72;9.83;;;;;;;-0.18;62.43;99563.88;1647812;85;21144;-67
2021/03/08 04:29:13;;;;;;;10.03;6.67;;;;;;;-0.28;62.70;99555.69;1673217;85;21076;-67
2021/03/08 04:31:41;;;;;;;12.58;7.65;;;;;;;-0.36;62.99;99553.91;1665625;84;21097;-68
2021/03/08 04:34:09;;;;;;;11.50;7.75;;;;;;;-0.42;63.19;99555.48;1693814;84;21141;-67
2021/03/08 04:36:38;;;;;;;14.58;9.20;;;;;;;-0.45;63.48;99548.70;1693944;84;22164;-68
2021/03/08 04:39:06;;;;;;;11.68;7.97;;;;;;;-0.49;63.61;99551.03;1666756;84;21137;-68
2021/03/08 04:41:34;;;;;;;11.63;8.70;;;;;;;-0.50;63.83;99550.66;1694041;83;21592;-67
2021/03/08 04:44:03;;;;;;;12.70;8.98;;;;;;;-0.48;63.93;99559.66;1693960;84;21401;-67
2021/03/08 04:46:31;;;;;;;11.63;9.08;;;;;;;-0.48;64.08;99555.34;1692978;84;21066;-67
2021/03/08 04:48:59;;;;;;;11.35;7.08;;;;;;;-0.48;64.20;99551.45;1693978;84;22064;-67
2021/03/08 04:51:29;;;;;;;13.65;10.30;;;;;;;-0.49;64.33;99557.52;1693922;84;21018;-67
2021/03/08 04:53:56;;;;;;;13.90;9.70;;;;;;;-0.50;64.46;99555.84;1693914;84;21157;-67
2021/03/08 04:56:27;;;;;;;13.68;9.85;;;;;;;-0.51;64.57;99552.88;1692962;84;21169;-67
2021/03/08 04:58:55;;;;;;;14.63;10.25;;;;;;;-0.50;64.64;99553.25;1693908;84;21160;-68
2021/03/08 05:01:23;;;;;;;13.72;9.00;;;;;;;-0.50;64.78;99558.44;1693828;84;22086;-67
2021/03/08 05:03:52;;;;;;;14.38;10.10;;;;;;;-0.47;64.71;99558.77;1665662;84;21104;-66
2021/03/08 05:06:20;;;;;;;13.75;9.33;;;;;;;-0.43;64.50;99560.30;1666676;84;21082;-68
2021/03/08 05:08:48;;;;;;;14.15;8.78;;;;;;;-0.34;64.00;99557.27;1645324;84;21161;-66
2021/03/08 05:11:16;;;;;;;15.65;9.90;;;;;;;-0.24;63.68;99559.80;1649227;85;21491;-68
2021/03/08 05:13:50;;;;;;;13.83;9.13;;;;;;;-0.16;63.19;99564.17;1613842;87;22084;-67
2021/03/08 05:16:19;;;;;;;14.57;9.70;;;;;;;-0.07;62.78;99562.43;1661646;86;21081;-68
2021/03/08 05:18:47;;;;;;;15.45;9.70;;;;;;;0.01;62.58;99565.11;1609181;87;21139;-67
2021/03/08 05:21:15;;;;;;;16.10;9.78;;;;;;;0.06;62.21;99577.39;1617679;87;21151;-67
2021/03/08 05:23:43;;;;;;;13.62;8.60;;;;;;;0.12;61.89;99565.42;1643380;87;21089;-69
2021/03/08 05:26:12;;;;;;;12.58;8.50;;;;;;;0.17;61.77;99575.11;1628994;86;22105;-67
2021/03/08 05:28:39;;;;;;;13.72;9.98;;;;;;;0.22;61.58;99574.44;1640282;87;21549;-67
2021/03/08 05:31:08;;;;;;;14.90;10.40;;;;;;;0.27;61.48;99563.34;1643698;87;21173;-68
2021/03/08 05:33:36;;;;;;;13.93;9.40;;;;;;;0.33;61.14;99560.45;1643910;87;21156;-67
2021/03/08 05:36:04;;;;;;;14.20;9.08;;;;;;;0.37;60.88;99565.02;1644138;87;20957;-67
2021/03/08 05:38:32;;;;;;;15.18;9.05;;;;;;;0.42;60.59;99569.08;1644120;87;21513;-67
2021/03/08 05:41:35;;;;;;;16.17;10.38;;;;;;;0.46;60.40;99575.78;1639729;87;21105;-67
2021/03/08 05:44:06;;;;;;;16.65;10.63;;;;;;;0.49;60.11;99574.81;1643772;87;21343;-65
2021/03/08 05:47:03;;;;;;;14.30;9.08;;;;;;;0.53;60.12;99564.63;1641856;86;21607;-65
2021/03/08 05:50:04;;;;;;;15.32;10.55;;;;;;;0.55;60.00;99567.53;1633622;86;21085;-66
2021/03/08 05:52:54;;;;;;;16.30;10.70;;;;;;;0.60;59.91;99575.10;1589622;87;22830;-68
2021/03/08 05:55:46;;;;;;;18.77;11.63;;;;;;;0.64;59.72;99579.67;1639350;87;21160;-66
2021/03/08 05:58:40;;;;;;;17.35;10.53;;;;;;;0.67;59.67;99575.61;1643998;87;21097;-66
2021/03/08 06:01:58;;;;;;;23.47;12.70;;;;;;;0.72;59.84;99582.72;1643797;87;21160;-66
2021/03/08 06:04:45;;;;;;;19.65;11.10;;;;;;;0.78;59.77;99588.91;1643942;87;21166;-66
2021/03/08 06:08:00;;;;;;;18.02;11.95;;;;;;;0.84;59.39;99593.31;1642747;87;21923;-66
2021/03/08 06:10:28;;;;;;;13.25;9.38;;;;;;;0.89;59.08;99596.15;1643171;87;21156;-66
2021/03/08 06:12:58;;;;;;;15.05;10.53;;;;;;;0.93;59.04;99596.36;1633712;87;21223;-66
2021/03/08 06:15:29;;;;;;;13.00;8.78;;;;;;;0.96;58.91;99587.92;1641274;87;21147;-66
2021/03/08 06:17:56;;;;;;;14.47;9.70;;;;;;;1.01;58.94;99596.34;1643883;87;21136;-67
2021/03/08 06:20:25;;;;;;;13.80;9.70;;;;;;;1.03;58.74;99607.50;1643869;87;22835;-65
2021/03/08 06:22:53;;;;;;;12.68;8.98;;;;;;;1.06;58.93;99596.08;1643935;87;21100;-65
2021/03/08 06:25:24;;;;;;;11.85;8.90;;;;;;;1.10;58.82;99604.13;1640213;86;21188;-65
2021/03/08 06:27:52;;;;;;;14.73;10.75;;;;;;;1.13;58.91;99602.19;1643971;86;21096;-64
2021/03/08 06:30:22;;;;;;;13.70;10.00;;;;;;;1.15;58.80;99608.59;1643023;86;21116;-65
2021/03/08 06:32:51;;;;;;;12.65;8.53;;;;;;;1.14;58.51;99609.06;1647689;87;22076;-65
2021/03/08 06:35:20;;;;;;;14.15;9.30;;;;;;;1.14;58.64;99610.83;1647474;86;21110;-65
2021/03/08 06:37:49;;;;;;;12.75;9.45;;;;;;;1.13;58.78;99607.39;1647548;85;21095;-68
2021/03/08 06:40:18;;;;;;;14.75;9.73;;;;;;;1.15;58.75;99615.10;1637704;87;21590;-65
2021/03/08 06:42:46;;;;;;;14.63;9.45;;;;;;;1.15;58.90;99611.20;1645762;85;21149;-65
2021/03/08 06:45:14;;;;;;;14.10;9.85;;;;;;;1.14;58.83;99618.17;1647535;87;22797;-66
2021/03/08 06:47:42;;;;;;;14.83;10.55;;;;;;;1.14;58.89;99604.33;1647749;86;21114;-65
2021/03/08 06:50:12;;;;;;;16.42;10.63;;;;;;;1.14;58.95;99603.02;1647781;87;21095;-67
2021/03/08 06:52:41;;;;;;;14.60;10.72;;;;;;;1.15;58.88;99601.64;1647587;86;21362;-65
2021/03/08 06:55:11;;;;;;;15.35;10.82;;;;;;;1.17;58.91;99596.84;1621633;87;21386;-65
2021/03/08 06:57:39;;;;;;;14.90;10.13;;;;;;;1.19;59.12;99601.03;1642081;85;22156;-66
2021/03/08 07:00:10;;;;;;;15.25;9.88;;;;;;;1.21;59.08;99599.19;1647590;86;21138;-65
2021/03/08 07:02:48;;;;;;;13.48;9.58;;;;;;;1.23;59.21;99594.73;1638741;87;21160;-65
2021/03/08 07:05:26;;;;;;;14.70;10.08;;;;;;;1.25;59.28;99590.74;1635664;87;21146;-65
2021/03/08 07:08:00;;;;;;;14.10;9.80;;;;;;;1.28;59.33;99603.14;1646867;87;21193;-65
2021/03/08 07:10:37;;;;;;;16.95;11.10;;;;;;;1.30;59.34;99595.25;1666601;86;22135;-64
2021/03/08 07:13:10;;;;;;;13.28;9.65;;;;;;;1.30;59.54;99596.09;1638289;87;21614;-66
2021/03/08 07:15:56;;;;;;;16.65;11.45;;;;;;;1.36;59.51;99604.87;1639958;87;21395;-65
2021/03/08 07:18:25;;;;;;;13.53;9.55;;;;;;;1.37;59.53;99599.22;1611613;87;21163;-65
2021/03/08 07:21:21;;;;;;;12.78;9.33;;;;;;;1.37;59.46;99601.35;1639003;87;21212;-65
2021/03/08 07:24:09;;;;;;;15.48;10.75;;;;;;;1.40;59.67;99597.27;1854054;76;29448;-66
2021/03/08 07:26:55;;;;;;;13.60;9.88;;;;;;;1.39;59.74;99593.45;1809257;78;21186;-65
2021/03/08 07:29:23;;;;;;;13.58;9.20;;;;;;;1.43;59.75;99606.67;1839275;77;21895;-66
2021/03/08 07:31:53;;;;;;;14.78;10.10;;;;;;;1.48;59.60;99592.96;1840735;78;21569;-66
2021/03/08 07:34:23;;;;;;;17.50;12.13;;;;;;;1.52;59.52;99603.56;1830033;78;21531;-66
2021/03/08 07:36:59;;;;;;;14.70;10.65;;;;;;;1.56;59.54;99600.36;1821510;78;21123;-67
2021/03/08 07:39:26;;;;;;;13.10;9.30;;;;;;;1.62;59.46;99611.71;1797510;78;21475;-66
2021/03/08 07:42:00;;;;;;;15.10;10.28;;;;;;;1.64;59.53;99608.12;1841562;78;22785;-66
2021/03/08 07:44:29;;;;;;;14.07;10.23;;;;;;;1.68;59.33;99606.18;1839139;78;21384;-66
2021/03/08 07:47:17;;;;;;;14.05;9.78;;;;;;;1.70;59.41;99609.07;1790231;78;21119;-66
2021/03/08 07:49:47;;;;;;;15.35;10.50;;;;;;;1.73;59.38;99614.56;1823710;78;21064;-66
2021/03/08 07:55:00;;;;;;;16.15;11.03;;;;;;;1.80;59.40;99609.40;1887545;76;29040;-66
2021/03/08 07:57:29;;;;;;;16.07;11.45;;;;;;;1.81;59.50;99603.73;1847510;77;21145;-66
2021/03/08 07:59:57;;;;;;;14.98;9.90;;;;;;;1.84;59.32;99603.12;1811793;78;21885;-67
2021/03/08 08:02:25;;;;;;;16.10;10.72;;;;;;;1.88;59.37;99608.52;1818158;77;21180;-66
2021/03/08 08:04:56;;;;;;;17.32;11.78;;;;;;;1.92;59.33;99605.27;1845909;77;21070;-67
2021/03/08 08:07:26;;;;;;;15.10;10.18;;;;;;;1.97;59.36;99594.98;1812040;77;21118;-65
2021/03/08 08:09:54;;;;;;;15.78;11.03;;;;;;;2.04;59.26;99601.99;1824339;77;21113;-66
2021/03/08 08:12:23;;;;;;;14.13;10.78;;;;;;;2.07;59.19;99602.27;1836669;77;23501;-66
2021/03/08 08:14:51;;;;;;;14.50;10.40;;;;;;;2.11;59.32;99595.48;1847202;77;21049;-66
2021/03/08 08:17:21;;;;;;;15.88;10.48;;;;;;;2.17;59.02;99593.84;1794550;79;21125;-65
2021/03/08 08:19:50;;;;;;;14.80;10.63;;;;;;;2.20;59.11;99596.73;1766307;80;21577;-65
2021/03/08 08:22:24;;;;;;;12.50;9.70;;;;;;;2.23;59.17;99591.36;1791632;79;21541;-65
2021/03/08 08:24:54;;;;;;;15.50;10.32;;;;;;;2.28;59.08;99596.66;1823530;77;21486;-67
2021/03/08 08:27:23;;;;;;;11.85;9.03;;;;;;;2.35;59.08;99585.91;1846791;77;21050;-66
2021/03/08 08:29:51;;;;;;;13.90;11.05;;;;;;;2.45;59.06;99587.04;1849824;77;21474;-66
2021/03/08 08:32:19;;;;;;;13.68;9.93;;;;;;;2.51;58.80;99582.75;1819871;77;21121;-66
2021/03/08 08:34:53;;;;;;;13.90;10.55;;;;;;;2.56;58.75;99585.94;1849723;77;21098;-67
2021/03/08 08:37:24;;;;;;;13.25;10.68;;;;;;;2.60;58.80;99583.52;1772343;80;22150;-67
2021/03/08 08:39:57;;;;;;;13.80;9.75;;;;;;;2.63;58.62;99585.96;1747481;80;21090;-67
2021/03/08 08:42:29;;;;;;;15.40;11.00;;;;;;;2.66;58.42;99594.06;1722684;82;21083;-67
2021/03/08 08:44:58;;;;;;;16.60;11.08;;;;;;;2.65;58.39;99581.48;1744710;82;21154;-67
2021/03/08 08:47:34;;;;;;;15.95;11.03;;;;;;;2.70;58.39;99587.72;1742350;82;21164;-67
2021/03/08 08:50:09;;;;;;;12.65;9.80;;;;;;;2.75;58.44;99589.59;1775233;80;23012;-66
2021/03/08 08:52:54;;;;;;;13.25;10.23;;;;;;;2.83;58.49;99586.08;1816615;79;21101;-67
2021/03/08 08:55:40;;;;;;;11.40;9.23;;;;;;;2.87;58.31;99585.78;1816421;78;21054;-70
2021/03/08 08:58:30;;;;;;;11.78;8.58;;;;;;;2.90;58.51;99593.08;1816346;78;21136;-67
2021/03/08 09:01:18;;;;;;;13.48;9.65;;;;;;;2.92;58.36;99590.73;1816425;79;21141;-67
2021/03/08 09:04:09;;;;;;;14.30;8.90;;;;;;;2.92;58.20;99589.44;1816371;79;22049;-68
2021/03/08 09:06:53;;;;;;;12.80;9.60;;;;;;;2.88;58.18;99580.09;1810406;79;21155;-67
2021/03/08 09:09:38;;;;;;;11.80;8.73;;;;;;;2.92;58.42;99597.73;1785180;79;21073;-67
2021/03/08 09:12:09;;;;;;;13.38;9.18;;;;;;;2.95;58.27;99585.33;1804759;79;21132;-67
2021/03/08 09:14:47;;;;;;;14.45;10.68;;;;;;;3.00;58.14;99582.45;1814615;78;21547;-67
2021/03/08 09:17:42;;;;;;;12.95;9.03;;;;;;;3.03;58.15;99575.73;1785322;80;21894;-70
2021/03/08 09:20:18;;;;;;;13.25;9.25;;;;;;;3.04;57.81;99574.33;1812912;79;21101;-66
2021/03/08 09:22:50;;;;;;;13.43;9.55;;;;;;;3.07;58.13;99579.82;1804317;79;21031;-66
2021/03/08 09:25:25;;;;;;;13.00;9.20;;;;;;;3.18;58.08;99583.91;1815776;79;21140;-67
2021/03/08 09:28:09;;;;;;;13.35;10.00;;;;;;;3.23;57.93;99593.61;1814964;78;21147;-65
2021/03/08 09:30:44;;;;;;;10.18;8.25;;;;;;;3.23;57.48;99587.09;1814844;79;22765;-67
2021/03/08 09:33:13;;;;;;;12.90;9.18;;;;;;;3.26;57.09;99591.27;1811624;79;21497;-67
2021/03/08 09:35:54;;;;;;;12.33;9.25;;;;;;;3.23;57.12;99594.08;1803951;79;21474;-67
2021/03/08 09:38:26;;;;;;;11.83;8.78;;;;;;;3.16;57.19;99589.70;1804122;79;21164;-67
2021/03/08 09:40:58;;;;;;;14.35;9.35;;;;;;;3.11;57.49;99591.77;1783310;79;21525;-68
2021/03/08 09:43:31;;;;;;;12.90;9.70;;;;;;;3.10;57.62;99596.61;1813115;79;21540;-68
2021/03/08 09:46:03;;;;;;;12.13;9.30;;;;;;;3.11;57.54;99602.20;1809460;79;21188;-69
2021/03/08 09:48:34;;;;;;;14.58;11.28;;;;;;;3.03;57.37;99603.97;1794216;78;21133;-66
2021/03/08 09:51:15;;;;;;;15.00;9.80;;;;;;;2.91;57.71;99596.89;1776341;79;21604;-68
2021/03/08 09:53:48;;;;;;;18.07;11.35;;;;;;;2.86;58.04;99599.75;1805394;78;21164;-67
2021/03/08 09:56:19;;;;;;;12.53;9.30;;;;;;;2.82;58.16;99599.58;1780169;78;21901;-68
2021/03/08 09:58:47;;;;;;;12.13;8.95;;;;;;;2.79;58.44;99607.56;1738330;80;21184;-67
2021/03/08 10:01:20;;;;;;;13.43;10.48;;;;;;;2.76;58.44;99606.45;1747793;81;21160;-65
2021/03/08 10:03:49;;;;;;;12.50;9.10;;;;;;;2.75;58.75;99604.78;1729836;81;21518;-69
2021/03/08 10:06:26;;;;;;;13.18;10.53;;;;;;;2.73;58.49;99609.72;1738373;81;21193;-69
2021/03/08 10:08:55;;;;;;;11.57;9.23;;;;;;;2.69;58.63;99606.44;1742687;81;22024;-70
2021/03/08 10:11:27;;;;;;;14.85;10.08;;;;;;;2.69;58.68;99606.91;1740828;81;21217;-69
2021/03/08 10:13:55;;;;;;;10.95;8.38;;;;;;;2.67;58.77;99611.38;1746068;81;21177;-68
2021/03/08 10:16:26;;;;;;;12.63;9.48;;;;;;;2.65;58.95;99610.63;1753499;81;21175;-67
2021/03/08 10:18:54;;;;;;;12.33;9.60;;;;;;;2.64;59.01;99603.75;1746082;81;21189;-68
2021/03/08 10:21:23;;;;;;;12.45;9.15;;;;;;;2.58;58.94;99612.75;1745065;81;23819;-69
2021/03/08 10:23:51;;;;;;;12.25;9.53;;;;;;;2.54;59.10;99614.71;1735955;81;21149;-69
2021/03/08 10:26:19;;;;;;;13.15;10.13;;;;;;;2.50;59.39;99611.05;1756570;80;21221;-71
2021/03/08 10:28:51;;;;;;;12.37;9.40;;;;;;;2.42;59.58;99611.98;1746799;81;21181;-70
2021/03/08 10:31:22;;;;;;;14.47;11.03;;;;;;;2.40;59.82;99616.42;1726467;81;21217;-70
2021/03/08 10:33:55;;;;;;;14.05;10.05;;;;;;;2.38;60.22;99618.28;1750673;80;22903;-68
2021/03/08 10:36:25;;;;;;;13.60;10.00;;;;;;;2.29;60.54;99611.37;1773352;80;21149;-71
2021/03/08 10:38:59;;;;;;;21.50;14.83;;;;;;;2.22;61.00;99617.02;1771092;80;21420;-70
2021/03/08 10:41:28;;;;;;;17.95;13.55;;;;;;;2.15;61.58;99620.45;1764243;80;21177;-68
2021/03/08 10:44:00;;;;;;;14.40;10.72;;;;;;;2.08;61.94;99610.00;1762518;80;21193;-71
2021/03/08 10:46:35;;;;;;;73.55;39.60;;;;;;;2.01;62.44;99613.86;1732576;82;22854;-71
2021/03/08 10:49:09;;;;;;;64.95;35.33;;;;;;;1.97;62.63;99633.20;1773142;80;21166;-72
2021/03/08 10:51:39;;;;;;;33.00;20.50;;;;;;;1.91;62.23;99623.96;1729632;81;21181;-70
2021/03/08 10:54:13;;;;;;;18.35;10.03;;;;;;;1.78;61.74;99630.78;1728746;82;21189;-70
2021/03/08 10:56:44;;;;;;;18.02;12.53;;;;;;;1.63;60.63;99635.52;1745637;81;21075;-70
2021/03/08 10:59:31;;;;;;;6.58;4.58;;;;;;;1.46;59.80;99631.25;1776882;80;22069;-69
2021/03/08 11:02:03;;;;;;;51.83;22.75;;;;;;;1.34;59.15;99633.18;1756020;81;21641;-68
2021/03/08 11:04:34;;;;;;;151.42;65.70;;;;;;;1.18;58.02;99638.84;1775368;80;21046;-67
2021/03/08 11:07:03;;;;;;;98.47;39.88;;;;;;;1.04;57.91;99641.67;1761184;81;21058;-67
2021/03/08 11:09:35;;;;;;;218.60;92.40;;;;;;;0.97;57.79;99640.80;1761218;81;21073;-67
2021/03/08 11:12:04;;;;;;;8.68;4.08;;;;;;;0.91;58.01;99648.91;1761305;81;22170;-66
2021/03/08 11:14:52;;;;;;;56.30;27.70;;;;;;;0.91;57.92;99649.74;1759958;81;21093;-66
2021/03/08 11:17:43;;;;;;;20.68;13.18;;;;;;;0.89;57.36;99641.64;1760904;81;21592;-66
2021/03/08 11:20:18;;;;;;;10.98;7.12;;;;;;;0.86;56.90;99638.26;1761088;81;21082;-66
2021/03/08 11:23:02;;;;;;;13.20;6.17;;;;;;;0.86;57.12;99635.66;1761220;81;21156;-66
2021/03/08 11:25:33;;;;;;;38.90;20.30;;;;;;;0.84;56.86;99628.87;1761353;81;21895;-67
2021/03/08 11:28:07;;;;;;;39.00;17.73;;;;;;;0.81;56.59;99629.03;1761502;81;21497;-67
2021/03/08 11:30:35;;;;;;;50.98;26.05;;;;;;;0.81;56.70;99626.44;1743113;81;21132;-68
2021/03/08 11:33:07;;;;;;;16.93;9.75;;;;;;;0.83;56.75;99628.49;1761170;81;21485;-65
2021/03/08 11:35:35;;;;;;;14.80;7.12;;;;;;;0.84;56.68;99634.06;1761197;81;21066;-67
2021/03/08 11:38:13;;;;;;;15.13;8.45;;;;;;;0.82;56.96;99640.65;1761221;81;23019;-66
2021/03/08 11:40:46;;;;;;;6.35;2.12;;;;;;;0.85;57.08;99638.34;1761136;81;21156;-66
2021/03/08 11:43:22;;;;;;;2.95;1.45;;;;;;;0.88;56.97;99645.17;1761254;81;21069;-67
2021/03/08 11:45:51;;;;;;;3.85;1.87;;;;;;;0.86;56.95;99640.02;1754809;81;21125;-67
2021/03/08 11:48:23;;;;;;;4.33;1.77;;;;;;;0.86;57.00;99638.72;1733932;81;21126;-67
2021/03/08 11:50:51;;;;;;;3.27;1.57;;;;;;;0.88;56.86;99644.70;1761106;81;22823;-66
2021/03/08 11:53:19;;;;;;;2.33;1.50;;;;;;;0.86;56.98;99642.63;1761071;81;21160;-66
2021/03/08 11:55:48;;;;;;;4.47;1.98;;;;;;;0.86;57.49;99646.52;1757744;81;21144;-67
2021/03/08 11:58:19;;;;;;;3.20;1.70;;;;;;;0.86;57.98;99643.46;1815678;79;21152;-67
2021/03/08 12:00:47;;;;;;;4.37;2.25;;;;;;;0.86;58.91;99649.13;1815855;79;21571;-67